Time;durP1;ratioP1;P1;durP2;ratioP2;P2;SDS_P1;SDS_P2;PMS_P1;PMS_P2;Temp;Humidity;BMP_temperature;BMP_pressure;BME280_temperature;BME280_humidity;BME280_pressure;Samples;Min_cycle;Max_cycle;Signal;HPM_P1;HPM_P2
2022/05/27 00:02:20;;;;;;;;;;;;;;;;;;5091715;27;19923;-70
2022/05/27 00:04:46;;;;;;;;;;;;;;;;;;5091195;28;20006;-70
2022/05/27 00:09:16;;;;;;;;;;;;;;;;;;5091323;27;20376;-71
2022/05/27 00:11:42;;;;;;;;;;;;;;;;;;5089985;28;19912;-71
2022/05/27 00:16:19;;;;;;;;;;;;;;;;;;5091860;27;19917;-70
2022/05/27 00:18:45;;;;;;;;;;;;;;;;;;5089884;28;19913;-71
2022/05/27 00:21:11;;;;;;;;;;;;;;;;;;5090762;28;19909;-71
2022/05/27 00:23:37;;;;;;;;;;;;;;;;;;5091170;28;19915;-71
2022/05/27 00:28:12;;;;;;;;;;;;;;;;;;5091236;27;19916;-70
2022/05/27 00:30:38;;;;;;;;;;;;;;;;;;5089965;28;19919;-70
2022/05/27 00:33:48;;;;;;;;;;;;;;;;;;5091406;27;19923;-70
2022/05/27 00:37:31;;;;;;;;;;;;;;;;;;5092041;27;19923;-69
2022/05/27 00:39:57;;;;;;;;;;;;;;;;;;5091274;28;19912;-70
2022/05/27 00:44:39;;;;;;;;;;;;;;;;;;5091730;27;19923;-70
2022/05/27 00:47:05;;;;;;;;;;;;;;;;;;5091183;28;20011;-70
2022/05/27 00:49:31;;;;;;;;;;;;;;;;;;5089532;28;19908;-70
2022/05/27 00:51:57;;;;;;;;;;;;;;;;;;5091227;28;19916;-70
2022/05/27 00:54:23;;;;;;;;;;;;;;;;;;5091054;28;20283;-70
2022/05/27 00:56:49;;;;;;;;;;;;;;;;;;5090646;28;19954;-70
2022/05/27 01:06:21;;;;;;;;;;;;;;;;;;5091524;27;19916;-70
2022/05/27 01:08:47;;;;;;;;;;;;;;;;;;5091273;28;20023;-70
2022/05/27 01:14:14;;;;;;;;;;;;;;;;;;5153269;27;19937;-70
2022/05/27 01:16:40;;;;;;;;;;;;;;;;;;5133917;27;19912;-70
2022/05/27 01:21:51;;;;;;;;;;;;;;;;;;5152770;27;20291;-71
2022/05/27 01:29:07;;;;;;;;;;;;;;;;;;5091883;28;19912;-71
2022/05/27 01:33:20;;;;;;;;;;;;;;;;;;5091491;27;19917;-70
2022/05/27 01:39:09;;;;;;;;;;;;;;;;;;5173444;27;19915;-70
2022/05/27 01:41:35;;;;;;;;;;;;;;;;;;5173632;27;19998;-70
2022/05/27 01:44:02;;;;;;;;;;;;;;;;;;5174083;27;19907;-70
2022/05/27 01:46:28;;;;;;;;;;;;;;;;;;5173287;27;19934;-70
2022/05/27 01:48:54;;;;;;;;;;;;;;;;;;5173477;27;19914;-70
2022/05/27 01:51:37;;;;;;;;;;;;;;;;;;5173439;27;20413;-70
2022/05/27 01:59:55;;;;;;;;;;;;;;;;;;5091055;27;19922;-70
2022/05/27 02:03:26;;;;;;;;;;;;;;;;;;5091430;27;20380;-70
2022/05/27 02:05:52;;;;;;;;;;;;;;;;;;5090882;28;20003;-70
2022/05/27 02:09:30;;;;;;;;;;;;;;;;;;5091486;27;19916;-70
2022/05/27 02:13:27;;;;;;;;;;;;;;;;;;5132045;27;20026;-71
2022/05/27 02:15:53;;;;;;;;;;;;;;;;;;5132101;28;20375;-70
2022/05/27 02:18:19;;;;;;;;;;;;;;;;;;5132184;28;19926;-70
2022/05/27 02:20:45;;;;;;;;;;;;;;;;;;5131680;28;19912;-70
2022/05/27 02:25:29;;;;;;;;;;;;;;;;;;5092091;27;19916;-70
2022/05/27 02:27:55;;;;;;;;;;;;;;;;;;5090960;28;20000;-70
2022/05/27 02:30:29;;;;;;;;;;;;;;;;;;5091154;28;19991;-71
2022/05/27 02:41:02;;;;;;;;;;;;;;;;;;5091435;27;19917;-70
2022/05/27 02:43:28;;;;;;;;;;;;;;;;;;5091198;28;20382;-70
2022/05/27 02:45:54;;;;;;;;;;;;;;;;;;5091209;28;19909;-71
2022/05/27 02:48:47;;;;;;;;;;;;;;;;;;5091044;28;19916;-70
2022/05/27 02:51:13;;;;;;;;;;;;;;;;;;5091275;28;20003;-70
2022/05/27 02:56:01;;;;;;;;;;;;;;;;;;5091289;27;19916;-70
2022/05/27 02:58:27;;;;;;;;;;;;;;;;;;5091333;28;20015;-70
2022/05/27 03:00:53;;;;;;;;;;;;;;;;;;5091220;28;20285;-70
2022/05/27 03:03:39;;;;;;;;;;;;;;;;;;5090963;27;20406;-71
2022/05/27 03:07:22;;;;;;;;;;;;;;;;;;5173891;27;20330;-70
2022/05/27 03:11:20;;;;;;;;;;;;;;;;;;5091647;28;19916;-70
2022/05/27 03:13:46;;;;;;;;;;;;;;;;;;5091265;28;19969;-70
2022/05/27 03:16:12;;;;;;;;;;;;;;;;;;5089553;28;19909;-70
2022/05/27 03:23:08;;;;;;;;;;;;;;;;;;5091584;27;19923;-70
2022/05/27 03:25:34;;;;;;;;;;;;;;;;;;5090023;28;19912;-70
2022/05/27 03:29:10;;;;;;;;;;;;;;;;;;5091961;27;19916;-70
2022/05/27 03:31:36;;;;;;;;;;;;;;;;;;5090900;28;20003;-70
2022/05/27 03:34:02;;;;;;;;;;;;;;;;;;5091222;28;19909;-70
2022/05/27 03:36:28;;;;;;;;;;;;;;;;;;5091201;28;19909;-70
2022/05/27 03:39:39;;;;;;;;;;;;;;;;;;5091561;28;19923;-70
2022/05/27 03:42:05;;;;;;;;;;;;;;;;;;5091555;28;20002;-70
2022/05/27 03:45:08;;;;;;;;;;;;;;;;;;5091263;28;19916;-70
2022/05/27 03:51:48;;;;;;;;;;;;;;;;;;5152655;27;19918;-70
2022/05/27 03:54:58;;;;;;;;;;;;;;;;;;5132714;27;20002;-70
2022/05/27 03:59:04;;;;;;;;;;;;;;;;;;5091339;27;19916;-70
2022/05/27 04:02:36;;;;;;;;;;;;;;;;;;5092000;28;19923;-70
2022/05/27 04:05:02;;;;;;;;;;;;;;;;;;5090890;28;19999;-70
2022/05/27 04:07:28;;;;;;;;;;;;;;;;;;5091525;28;19961;-70
2022/05/27 04:09:54;;;;;;;;;;;;;;;;;;5091199;28;20339;-70
2022/05/27 04:12:20;;;;;;;;;;;;;;;;;;5090870;28;19908;-70
2022/05/27 04:14:46;;;;;;;;;;;;;;;;;;5089890;28;19978;-70
2022/05/27 04:17:30;;;;;;;;;;;;;;;;;;5091497;28;19954;-70
2022/05/27 04:19:56;;;;;;;;;;;;;;;;;;5090573;28;19913;-71
2022/05/27 04:22:22;;;;;;;;;;;;;;;;;;5091014;28;19923;-71
2022/05/27 04:28:08;;;;;;;;;;;;;;;;;;5090887;27;20380;-70
2022/05/27 04:30:34;;;;;;;;;;;;;;;;;;5091264;28;19999;-69
2022/05/27 04:33:00;;;;;;;;;;;;;;;;;;5091189;28;19931;-67
2022/05/27 04:36:59;;;;;;;;;;;;;;;;;;5091413;27;19913;-69
2022/05/27 04:39:25;;;;;;;;;;;;;;;;;;5089915;28;20292;-68
2022/05/27 04:41:51;;;;;;;;;;;;;;;;;;5090706;28;19908;-68
2022/05/27 04:44:17;;;;;;;;;;;;;;;;;;5089788;28;20253;-69
2022/05/27 04:49:56;;;;;;;;;;;;;;;;;;5092015;28;19923;-69
2022/05/27 04:52:22;;;;;;;;;;;;;;;;;;5091191;28;19995;-68
2022/05/27 04:54:48;;;;;;;;;;;;;;;;;;5090728;28;19915;-68
2022/05/27 05:02:15;;;;;;;;;;;;;;;;;;5091180;27;19978;-68
2022/05/27 05:04:41;;;;;;;;;;;;;;;;;;5091138;28;19912;-68
2022/05/27 05:08:05;;;;;;;;;;;;;;;;;;5091940;27;20289;-69
2022/05/27 05:10:31;;;;;;;;;;;;;;;;;;5090696;28;20003;-69
2022/05/27 05:12:57;;;;;;;;;;;;;;;;;;5091130;28;19909;-68
2022/05/27 05:15:50;;;;;;;;;;;;;;;;;;5087454;28;19916;-68
2022/05/27 05:24:03;;;;;;;;;;;;;;;;;;5086969;27;19920;-69
2022/05/27 05:26:42;;;;;;;;;;;;;;;;;;5084973;27;19920;-69
2022/05/27 05:29:08;;;;;;;;;;;;;;;;;;5082477;28;19912;-73
2022/05/27 05:31:34;;;;;;;;;;;;;;;;;;5081971;28;20007;-75
2022/05/27 05:34:00;;;;;;;;;;;;;;;;;;5084157;28;20003;-73
2022/05/27 05:36:26;;;;;;;;;;;;;;;;;;5086536;28;19913;-73
2022/05/27 05:38:52;;;;;;;;;;;;;;;;;;5085176;28;19922;-73
2022/05/27 05:42:41;;;;;;;;;;;;;;;;;;5085321;28;19920;-73
2022/05/27 05:45:07;;;;;;;;;;;;;;;;;;5065799;28;19913;-73
2022/05/27 05:47:33;;;;;;;;;;;;;;;;;;5065327;28;20408;-73
2022/05/27 05:49:59;;;;;;;;;;;;;;;;;;5066254;28;20364;-73
2022/05/27 05:52:40;;;;;;;;;;;;;;;;;;5083437;27;19921;-74
2022/05/27 05:55:07;;;;;;;;;;;;;;;;;;5084155;28;19944;-72
2022/05/27 05:57:32;;;;;;;;;;;;;;;;;;5086875;28;20396;-72
2022/05/27 05:59:58;;;;;;;;;;;;;;;;;;5088053;28;19908;-74
2022/05/27 06:02:24;;;;;;;;;;;;;;;;;;5087681;28;19908;-75
2022/05/27 06:04:51;;;;;;;;;;;;;;;;;;5087173;28;20693;-74
2022/05/27 06:07:17;;;;;;;;;;;;;;;;;;5088407;28;19951;-75
2022/05/27 06:09:52;;;;;;;;;;;;;;;;;;5086880;27;19917;-74
2022/05/27 06:12:23;;;;;;;;;;;;;;;;;;5084225;28;19958;-73
2022/05/27 06:14:49;;;;;;;;;;;;;;;;;;5078015;28;19921;-72
2022/05/27 06:17:15;;;;;;;;;;;;;;;;;;5082785;28;19912;-75
2022/05/27 06:19:41;;;;;;;;;;;;;;;;;;5084977;28;19912;-74
2022/05/27 06:22:07;;;;;;;;;;;;;;;;;;5083111;28;19908;-73
2022/05/27 06:24:53;;;;;;;;;;;;;;;;;;5087387;27;19920;-72
2022/05/27 06:27:19;;;;;;;;;;;;;;;;;;5086691;28;20554;-76
2022/05/27 06:39:34;;;;;;;;;;;;;;;;;;5089473;27;19920;-74
2022/05/27 06:42:32;;;;;;;;;;;;;;;;;;5087903;27;19920;-74
2022/05/27 06:44:58;;;;;;;;;;;;;;;;;;5085094;28;20395;-74
2022/05/27 06:47:24;;;;;;;;;;;;;;;;;;5083552;28;19919;-75
2022/05/27 06:49:50;;;;;;;;;;;;;;;;;;5087125;28;20315;-76
2022/05/27 06:52:40;;;;;;;;;;;;;;;;;;5089304;27;19926;-74
2022/05/27 06:56:21;;;;;;;;;;;;;;;;;;5088752;27;20334;-75
2022/05/27 06:58:47;;;;;;;;;;;;;;;;;;5082781;28;19913;-75
2022/05/27 07:01:13;;;;;;;;;;;;;;;;;;5086921;28;19931;-75
2022/05/27 07:05:20;;;;;;;;;;;;;;;;;;5087059;27;19927;-77
2022/05/27 07:07:46;;;;;;;;;;;;;;;;;;5073622;28;19922;-77
2022/05/27 07:11:00;;;;;;;;;;;;;;;;;;5085215;28;20266;-76
2022/05/27 07:13:26;;;;;;;;;;;;;;;;;;5086555;28;19962;-74
2022/05/27 07:15:52;;;;;;;;;;;;;;;;;;5087102;28;19924;-74
2022/05/27 07:18:19;;;;;;;;;;;;;;;;;;5085436;28;19908;-76
2022/05/27 07:20:45;;;;;;;;;;;;;;;;;;5086338;28;19921;-74
2022/05/27 07:23:11;;;;;;;;;;;;;;;;;;5085459;28;20396;-78
2022/05/27 07:25:47;;;;;;;;;;;;;;;;;;5088339;27;20323;-78
2022/05/27 07:28:13;;;;;;;;;;;;;;;;;;5084144;28;19913;-74
2022/05/27 07:30:39;;;;;;;;;;;;;;;;;;5088306;28;19923;-74
2022/05/27 07:33:05;;;;;;;;;;;;;;;;;;5086997;28;19908;-73
2022/05/27 07:35:31;;;;;;;;;;;;;;;;;;5088176;28;19912;-75
2022/05/27 07:37:57;;;;;;;;;;;;;;;;;;5088141;28;20383;-76
2022/05/27 07:40:23;;;;;;;;;;;;;;;;;;5086547;28;20007;-78
2022/05/27 07:42:49;;;;;;;;;;;;;;;;;;5086872;28;19916;-75
2022/05/27 07:46:49;;;;;;;;;;;;;;;;;;5134980;27;20435;-75
2022/05/27 07:49:15;;;;;;;;;;;;;;;;;;5129498;28;19955;-73
2022/05/27 07:51:41;;;;;;;;;;;;;;;;;;5111184;28;19912;-73
2022/05/27 07:54:22;;;;;;;;;;;;;;;;;;5110708;27;19919;-77
2022/05/27 07:56:48;;;;;;;;;;;;;;;;;;5123263;27;19912;-76
2022/05/27 07:59:14;;;;;;;;;;;;;;;;;;5111792;28;19912;-79
2022/05/27 08:01:40;;;;;;;;;;;;;;;;;;5113519;27;19916;-75
2022/05/27 08:06:00;;;;;;;;;;;;;;;;;;5126375;27;19918;-74
2022/05/27 08:08:26;;;;;;;;;;;;;;;;;;5127006;28;19998;-73
2022/05/27 08:10:52;;;;;;;;;;;;;;;;;;5127578;28;20284;-73
2022/05/27 08:13:19;;;;;;;;;;;;;;;;;;5126377;28;19930;-74
2022/05/27 08:17:15;;;;;;;;;;;;;;;;;;5087095;27;19912;-75
2022/05/27 08:19:42;;;;;;;;;;;;;;;;;;5082776;28;19923;-74
2022/05/27 08:22:09;;;;;;;;;;;;;;;;;;5084948;28;19913;-76
2022/05/27 08:24:35;;;;;;;;;;;;;;;;;;5085886;28;19966;-79
2022/05/27 08:27:01;;;;;;;;;;;;;;;;;;5085638;28;19943;-75
2022/05/27 08:29:28;;;;;;;;;;;;;;;;;;5086330;28;19912;-76
2022/05/27 08:31:54;;;;;;;;;;;;;;;;;;5093245;28;19920;-75
2022/05/27 08:39:49;;;;;;;;;;;;;;;;;;5082597;28;20391;-79
2022/05/27 08:42:15;;;;;;;;;;;;;;;;;;5092809;28;20380;-77
2022/05/27 08:44:45;;;;;;;;;;;;;;;;;;5086227;28;20019;-74
2022/05/27 08:47:11;;;;;;;;;;;;;;;;;;5084971;28;19958;-75
2022/05/27 08:49:37;;;;;;;;;;;;;;;;;;5085723;28;19943;-75
2022/05/27 08:52:03;;;;;;;;;;;;;;;;;;5085308;28;19912;-74
2022/05/27 08:54:29;;;;;;;;;;;;;;;;;;5093470;28;19912;-76
2022/05/27 08:59:40;;;;;;;;;;;;;;;;;;5081347;28;19942;-75
2022/05/27 09:02:06;;;;;;;;;;;;;;;;;;5086635;28;19915;-75
2022/05/27 09:04:33;;;;;;;;;;;;;;;;;;5087924;28;19909;-75
2022/05/27 09:06:59;;;;;;;;;;;;;;;;;;5086307;28;19908;-76
2022/05/27 09:09:25;;;;;;;;;;;;;;;;;;5087050;28;19916;-74
2022/05/27 09:11:50;;;;;;;;;;;;;;;;;;5089635;28;19908;-73
2022/05/27 09:14:16;;;;;;;;;;;;;;;;;;5086711;28;19924;-75
2022/05/27 09:16:42;;;;;;;;;;;;;;;;;;5086992;28;19924;-73
2022/05/27 09:19:08;;;;;;;;;;;;;;;;;;5090887;28;20266;-74
2022/05/27 09:21:34;;;;;;;;;;;;;;;;;;5088039;28;19918;-75
2022/05/27 09:24:00;;;;;;;;;;;;;;;;;;5087743;28;19919;-76
2022/05/27 09:26:27;;;;;;;;;;;;;;;;;;5087372;28;19935;-75
2022/05/27 09:28:53;;;;;;;;;;;;;;;;;;5072998;28;20003;-73
2022/05/27 09:32:38;;;;;;;;;;;;;;;;;;5087357;28;19916;-72
2022/05/27 09:35:04;;;;;;;;;;;;;;;;;;5085212;28;19918;-73
2022/05/27 09:37:30;;;;;;;;;;;;;;;;;;5087180;28;19908;-73
2022/05/27 09:39:56;;;;;;;;;;;;;;;;;;5088342;28;19962;-75
2022/05/27 09:42:23;;;;;;;;;;;;;;;;;;5086951;28;20144;-73
2022/05/27 09:44:49;;;;;;;;;;;;;;;;;;5086608;28;20013;-72
2022/05/27 09:47:16;;;;;;;;;;;;;;;;;;5087495;28;19972;-73
2022/05/27 09:49:43;;;;;;;;;;;;;;;;;;5087265;28;20308;-74
2022/05/27 09:52:08;;;;;;;;;;;;;;;;;;5087304;28;19920;-72
2022/05/27 09:54:34;;;;;;;;;;;;;;;;;;5088019;28;19912;-73
2022/05/27 09:57:02;;;;;;;;;;;;;;;;;;5086545;28;19909;-73
2022/05/27 09:59:28;;;;;;;;;;;;;;;;;;5088477;28;19916;-74
2022/05/27 10:01:54;;;;;;;;;;;;;;;;;;5093631;28;19908;-73
2022/05/27 10:04:21;;;;;;;;;;;;;;;;;;5096042;28;19916;-74
2022/05/27 10:06:47;;;;;;;;;;;;;;;;;;5089056;28;19908;-74
2022/05/27 10:09:14;;;;;;;;;;;;;;;;;;5088289;28;19990;-70
2022/05/27 10:11:40;;;;;;;;;;;;;;;;;;5088142;28;20394;-73
2022/05/27 10:14:06;;;;;;;;;;;;;;;;;;5087039;28;19947;-74
2022/05/27 10:16:32;;;;;;;;;;;;;;;;;;5092763;28;19912;-75
2022/05/27 10:18:59;;;;;;;;;;;;;;;;;;5088140;28;20395;-75
2022/05/27 10:21:25;;;;;;;;;;;;;;;;;;5087810;28;20596;-74
2022/05/27 10:23:54;;;;;;;;;;;;;;;;;;5088204;28;19912;-69
2022/05/27 10:26:20;;;;;;;;;;;;;;;;;;5086853;28;19942;-69
2022/05/27 10:28:46;;;;;;;;;;;;;;;;;;5086253;28;19915;-70
2022/05/27 10:31:12;;;;;;;;;;;;;;;;;;5093691;28;19920;-68
2022/05/27 10:33:38;;;;;;;;;;;;;;;;;;5106375;28;19934;-69
2022/05/27 10:36:04;;;;;;;;;;;;;;;;;;5107210;28;20279;-69
2022/05/27 10:38:30;;;;;;;;;;;;;;;;;;5108179;28;19912;-70
2022/05/27 10:40:56;;;;;;;;;;;;;;;;;;5110479;28;19986;-68
2022/05/27 10:43:24;;;;;;;;;;;;;;;;;;5094985;28;20007;-70
2022/05/27 10:45:50;;;;;;;;;;;;;;;;;;5090375;28;19946;-70
2022/05/27 10:48:16;;;;;;;;;;;;;;;;;;5094229;28;20307;-69
2022/05/27 10:50:42;;;;;;;;;;;;;;;;;;5095245;28;19920;-70
2022/05/27 10:53:08;;;;;;;;;;;;;;;;;;5094010;28;20426;-69
2022/05/27 10:55:34;;;;;;;;;;;;;;;;;;5076752;28;19912;-69
2022/05/27 11:03:29;;;;;;;;;;;;;;;;;;5097680;28;19923;-69
2022/05/27 11:05:55;;;;;;;;;;;;;;;;;;5094636;28;19908;-69
2022/05/27 11:08:21;;;;;;;;;;;;;;;;;;5092379;28;20007;-67
2022/05/27 11:10:48;;;;;;;;;;;;;;;;;;5093256;28;20341;-69
2022/05/27 11:15:58;;;;;;;;;;;;;;;;;;5096026;28;19969;-68
2022/05/27 11:18:24;;;;;;;;;;;;;;;;;;5092197;28;20360;-68
2022/05/27 11:20:50;;;;;;;;;;;;;;;;;;5092591;28;20444;-68
2022/05/27 11:23:16;;;;;;;;;;;;;;;;;;5091394;28;19908;-69
2022/05/27 11:25:42;;;;;;;;;;;;;;;;;;5092563;28;20202;-69
2022/05/27 11:28:08;;;;;;;;;;;;;;;;;;5091450;28;19916;-68
2022/05/27 11:30:34;;;;;;;;;;;;;;;;;;5099743;28;19946;-68
2022/05/27 11:33:00;;;;;;;;;;;;;;;;;;5095903;28;19995;-68
2022/05/27 11:35:26;;;;;;;;;;;;;;;;;;5093518;28;19931;-68
2022/05/27 11:37:52;;;;;;;;;;;;;;;;;;5094343;28;19909;-69
2022/05/27 11:40:18;;;;;;;;;;;;;;;;;;5099623;28;19916;-69
2022/05/27 11:42:44;;;;;;;;;;;;;;;;;;5093725;28;20302;-68
2022/05/27 11:45:11;;;;;;;;;;;;;;;;;;5093585;28;19919;-68
2022/05/27 11:47:37;;;;;;;;;;;;;;;;;;5090810;28;19967;-69
2022/05/27 11:50:03;;;;;;;;;;;;;;;;;;5074839;28;20038;-70
2022/05/27 11:52:29;;;;;;;;;;;;;;;;;;5094676;28;20364;-70
2022/05/27 11:54:55;;;;;;;;;;;;;;;;;;5099874;28;19998;-69
2022/05/27 11:57:21;;;;;;;;;;;;;;;;;;5093116;28;19908;-69
2022/05/27 11:59:47;;;;;;;;;;;;;;;;;;5093986;28;19919;-69
2022/05/27 12:02:13;;;;;;;;;;;;;;;;;;5099343;28;19919;-69
2022/05/27 12:04:39;;;;;;;;;;;;;;;;;;5093264;28;19911;-68
2022/05/27 12:07:05;;;;;;;;;;;;;;;;;;5092757;28;19915;-67
2022/05/27 12:09:31;;;;;;;;;;;;;;;;;;5093408;28;19912;-68
2022/05/27 12:11:57;;;;;;;;;;;;;;;;;;5092961;28;19974;-70
2022/05/27 12:14:23;;;;;;;;;;;;;;;;;;5078152;28;20380;-69
2022/05/27 12:16:49;;;;;;;;;;;;;;;;;;5075366;28;19913;-69
2022/05/27 12:19:15;;;;;;;;;;;;;;;;;;5092334;28;19955;-70
2022/05/27 12:21:41;;;;;;;;;;;;;;;;;;5093378;28;19998;-70
2022/05/27 12:24:07;;;;;;;;;;;;;;;;;;5092716;28;19970;-69
2022/05/27 12:26:33;;;;;;;;;;;;;;;;;;5094029;28;19984;-69
2022/05/27 12:28:59;;;;;;;;;;;;;;;;;;5074539;28;20003;-70
2022/05/27 12:31:27;;;;;;;;;;;;;;;;;;5092278;28;19974;-70
2022/05/27 12:33:53;;;;;;;;;;;;;;;;;;5089660;28;20326;-70
2022/05/27 12:36:19;;;;;;;;;;;;;;;;;;5092048;28;19916;-67
2022/05/27 12:38:46;;;;;;;;;;;;;;;;;;5074310;28;20269;-69
2022/05/27 12:41:12;;;;;;;;;;;;;;;;;;5091844;28;19908;-68
2022/05/27 12:43:38;;;;;;;;;;;;;;;;;;5092888;28;20418;-68
2022/05/27 12:46:04;;;;;;;;;;;;;;;;;;5091965;28;19944;-70
2022/05/27 12:48:30;;;;;;;;;;;;;;;;;;5092691;28;19933;-69
2022/05/27 12:50:56;;;;;;;;;;;;;;;;;;5092675;28;19919;-69
2022/05/27 12:53:23;;;;;;;;;;;;;;;;;;5073483;28;20754;-69
2022/05/27 13:01:18;;;;;;;;;;;;;;;;;;5091723;28;19973;-69
2022/05/27 13:03:45;;;;;;;;;;;;;;;;;;5092651;28;20007;-70
2022/05/27 13:06:17;;;;;;;;;;;;;;;;;;5092761;28;19908;-71
2022/05/27 13:08:43;;;;;;;;;;;;;;;;;;5093581;28;19947;-70
2022/05/27 13:11:09;;;;;;;;;;;;;;;;;;5093804;28;19955;-70
2022/05/27 13:13:35;;;;;;;;;;;;;;;;;;5093664;28;20410;-70
2022/05/27 13:16:01;;;;;;;;;;;;;;;;;;5075660;28;19953;-71
2022/05/27 13:18:27;;;;;;;;;;;;;;;;;;5093894;28;19973;-70
2022/05/27 13:20:53;;;;;;;;;;;;;;;;;;5093281;28;19977;-70
2022/05/27 13:23:19;;;;;;;;;;;;;;;;;;5093608;28;20174;-70
2022/05/27 13:25:47;;;;;;;;;;;;;;;;;;5091303;28;19912;-71
2022/05/27 13:28:13;;;;;;;;;;;;;;;;;;5087057;28;19918;-70
2022/05/27 13:30:40;;;;;;;;;;;;;;;;;;5082169;28;20007;-69
2022/05/27 13:33:07;;;;;;;;;;;;;;;;;;5073789;28;19917;-69
2022/05/27 13:35:32;;;;;;;;;;;;;;;;;;5073220;28;19948;-70
2022/05/27 13:37:58;;;;;;;;;;;;;;;;;;5073361;28;19913;-69
2022/05/27 13:40:24;;;;;;;;;;;;;;;;;;5073459;28;20357;-69
2022/05/27 13:42:51;;;;;;;;;;;;;;;;;;5073090;28;20372;-69
2022/05/27 13:45:17;;;;;;;;;;;;;;;;;;5073503;28;19932;-69
2022/05/27 13:47:43;;;;;;;;;;;;;;;;;;5073486;28;20356;-69
2022/05/27 13:50:09;;;;;;;;;;;;;;;;;;5073234;28;20311;-68
2022/05/27 13:52:35;;;;;;;;;;;;;;;;;;5073266;28;19917;-69
2022/05/27 13:55:01;;;;;;;;;;;;;;;;;;5073311;28;20372;-70
2022/05/27 13:57:27;;;;;;;;;;;;;;;;;;5072961;28;19909;-70
2022/05/27 13:59:53;;;;;;;;;;;;;;;;;;5073187;28;19909;-69
2022/05/27 14:02:19;;;;;;;;;;;;;;;;;;5073364;28;20373;-70
2022/05/27 14:04:45;;;;;;;;;;;;;;;;;;5072888;28;19909;-70
2022/05/27 14:07:11;;;;;;;;;;;;;;;;;;5055266;28;20008;-70
2022/05/27 14:09:37;;;;;;;;;;;;;;;;;;5073167;28;19909;-70
2022/05/27 14:12:03;;;;;;;;;;;;;;;;;;5072737;28;19947;-70
2022/05/27 14:14:29;;;;;;;;;;;;;;;;;;5073067;28;19912;-70
2022/05/27 14:16:55;;;;;;;;;;;;;;;;;;5072769;28;19909;-70
2022/05/27 14:19:21;;;;;;;;;;;;;;;;;;5076660;28;20373;-70
2022/05/27 14:24:32;;;;;;;;;;;;;;;;;;5076452;28;19967;-70
2022/05/27 14:26:58;;;;;;;;;;;;;;;;;;5076794;28;19934;-71
2022/05/27 14:29:24;;;;;;;;;;;;;;;;;;5076678;28;19947;-70
2022/05/27 14:31:50;;;;;;;;;;;;;;;;;;5075973;28;19921;-70
2022/05/27 14:34:16;;;;;;;;;;;;;;;;;;5077102;28;20339;-69
2022/05/27 14:36:42;;;;;;;;;;;;;;;;;;5077123;28;19909;-70
2022/05/27 14:39:08;;;;;;;;;;;;;;;;;;5076119;28;20268;-70
2022/05/27 14:41:34;;;;;;;;;;;;;;;;;;5076451;28;20021;-70
2022/05/27 14:44:01;;;;;;;;;;;;;;;;;;5076765;28;20011;-70
2022/05/27 14:46:27;;;;;;;;;;;;;;;;;;5076409;28;19912;-70
2022/05/27 14:48:55;;;;;;;;;;;;;;;;;;5076264;28;19909;-70
2022/05/27 14:51:21;;;;;;;;;;;;;;;;;;5076136;28;20339;-70
2022/05/27 14:53:47;;;;;;;;;;;;;;;;;;5057870;28;19951;-70
2022/05/27 14:56:13;;;;;;;;;;;;;;;;;;5076193;28;19951;-70
2022/05/27 14:58:39;;;;;;;;;;;;;;;;;;5076154;28;19936;-70
2022/05/27 15:01:05;;;;;;;;;;;;;;;;;;5075757;28;19908;-70
2022/05/27 15:03:35;;;;;;;;;;;;;;;;;;5076050;28;20276;-70
2022/05/27 15:06:01;;;;;;;;;;;;;;;;;;5075920;28;19909;-70
2022/05/27 15:08:27;;;;;;;;;;;;;;;;;;5075570;28;19908;-70
2022/05/27 15:10:53;;;;;;;;;;;;;;;;;;5075772;28;20050;-69
2022/05/27 15:13:19;;;;;;;;;;;;;;;;;;5088406;28;20415;-70
2022/05/27 15:15:45;;;;;;;;;;;;;;;;;;5096160;28;19908;-70
2022/05/27 15:18:11;;;;;;;;;;;;;;;;;;5096000;28;19939;-71
2022/05/27 15:20:37;;;;;;;;;;;;;;;;;;5095556;28;19947;-70
2022/05/27 15:23:04;;;;;;;;;;;;;;;;;;5095991;28;19908;-71
2022/05/27 15:25:30;;;;;;;;;;;;;;;;;;5092221;28;20353;-71
2022/05/27 15:33:17;;;;;;;;;;;;;;;;;;5075527;28;19916;-70
2022/05/27 15:35:43;;;;;;;;;;;;;;;;;;5074488;28;20523;-70
2022/05/27 15:38:09;;;;;;;;;;;;;;;;;;5075417;28;20003;-70
2022/05/27 15:40:37;;;;;;;;;;;;;;;;;;5075281;28;20353;-70
2022/05/27 15:43:03;;;;;;;;;;;;;;;;;;5054877;28;20000;-70
2022/05/27 15:45:29;;;;;;;;;;;;;;;;;;5074603;28;19999;-70
2022/05/27 15:47:55;;;;;;;;;;;;;;;;;;5074444;28;19935;-70
2022/05/27 15:50:20;;;;;;;;;;;;;;;;;;5074911;28;19908;-70
2022/05/27 15:52:46;;;;;;;;;;;;;;;;;;5075018;28;19916;-70
2022/05/27 15:55:13;;;;;;;;;;;;;;;;;;5075078;28;19908;-71
2022/05/27 15:57:41;;;;;;;;;;;;;;;;;;5074631;28;19912;-70
2022/05/27 16:00:07;;;;;;;;;;;;;;;;;;5074978;28;19916;-70
2022/05/27 16:02:33;;;;;;;;;;;;;;;;;;5074584;28;19909;-70
2022/05/27 16:04:59;;;;;;;;;;;;;;;;;;5074914;28;19913;-69
2022/05/27 16:07:25;;;;;;;;;;;;;;;;;;5074958;28;19912;-70
2022/05/27 16:09:51;;;;;;;;;;;;;;;;;;5074918;28;20408;-69
2022/05/27 16:12:17;;;;;;;;;;;;;;;;;;5074672;28;19920;-70
2022/05/27 16:14:43;;;;;;;;;;;;;;;;;;5074935;28;19916;-70
2022/05/27 16:19:54;;;;;;;;;;;;;;;;;;5074729;28;20281;-70
2022/05/27 16:22:20;;;;;;;;;;;;;;;;;;5074573;28;20273;-70
2022/05/27 16:24:46;;;;;;;;;;;;;;;;;;5074362;28;19914;-70
2022/05/27 16:27:11;;;;;;;;;;;;;;;;;;5074558;28;19908;-70
2022/05/27 16:29:37;;;;;;;;;;;;;;;;;;5074398;28;20288;-70
2022/05/27 16:32:03;;;;;;;;;;;;;;;;;;5073726;28;19920;-70
2022/05/27 16:34:30;;;;;;;;;;;;;;;;;;5074310;28;19991;-70
2022/05/27 16:36:56;;;;;;;;;;;;;;;;;;5074186;28;19915;-70
2022/05/27 16:39:22;;;;;;;;;;;;;;;;;;5073902;28;19908;-70
2022/05/27 16:41:48;;;;;;;;;;;;;;;;;;5073702;28;19992;-70
2022/05/27 16:44:14;;;;;;;;;;;;;;;;;;5074386;28;20030;-70
2022/05/27 16:46:40;;;;;;;;;;;;;;;;;;5073562;28;20257;-70
2022/05/27 16:49:06;;;;;;;;;;;;;;;;;;5074468;28;19961;-70
2022/05/27 16:51:32;;;;;;;;;;;;;;;;;;5055980;28;19982;-70
2022/05/27 16:53:59;;;;;;;;;;;;;;;;;;5073596;28;20323;-70
2022/05/27 16:56:25;;;;;;;;;;;;;;;;;;5074285;28;20324;-70
2022/05/27 16:58:51;;;;;;;;;;;;;;;;;;5073521;28;19909;-70
2022/05/27 17:01:17;;;;;;;;;;;;;;;;;;5074420;28;19934;-70
2022/05/27 17:03:43;;;;;;;;;;;;;;;;;;5073885;28;19908;-70
2022/05/27 17:06:11;;;;;;;;;;;;;;;;;;5073531;28;20373;-70
2022/05/27 17:08:37;;;;;;;;;;;;;;;;;;5073939;28;19916;-70
2022/05/27 17:11:03;;;;;;;;;;;;;;;;;;5074064;28;19924;-71
2022/05/27 17:13:29;;;;;;;;;;;;;;;;;;5073390;28;19909;-70
2022/05/27 17:15:55;;;;;;;;;;;;;;;;;;5073663;28;19909;-70
2022/05/27 17:18:21;;;;;;;;;;;;;;;;;;5073578;28;19908;-71
2022/05/27 17:22:01;;;;;;;;;;;;;;;;;;5091040;28;19916;-71
2022/05/27 17:24:28;;;;;;;;;;;;;;;;;;5091192;28;19940;-71
2022/05/27 17:26:54;;;;;;;;;;;;;;;;;;5090802;28;19908;-71
2022/05/27 17:29:20;;;;;;;;;;;;;;;;;;5091050;28;19908;-71
2022/05/27 17:31:47;;;;;;;;;;;;;;;;;;5091033;28;20010;-71
2022/05/27 17:34:13;;;;;;;;;;;;;;;;;;5090844;28;19908;-70
2022/05/27 17:36:39;;;;;;;;;;;;;;;;;;5090899;28;19999;-71
2022/05/27 17:39:05;;;;;;;;;;;;;;;;;;5090817;28;20352;-71
2022/05/27 17:41:31;;;;;;;;;;;;;;;;;;5090585;28;20292;-71
2022/05/27 17:43:58;;;;;;;;;;;;;;;;;;5090682;28;19909;-70
2022/05/27 17:52:12;;;;;;;;;;;;;;;;;;5091090;28;19920;-71
2022/05/27 17:54:38;;;;;;;;;;;;;;;;;;5091028;28;19909;-71
2022/05/27 17:57:04;;;;;;;;;;;;;;;;;;5090582;28;19908;-71
2022/05/27 18:00:24;;;;;;;;;;;;;;;;;;5091197;27;19912;-72
2022/05/27 18:02:50;;;;;;;;;;;;;;;;;;5090806;28;19927;-72
2022/05/27 18:05:17;;;;;;;;;;;;;;;;;;5091230;28;19909;-72
2022/05/27 18:07:43;;;;;;;;;;;;;;;;;;5091193;28;19954;-72
2022/05/27 18:10:09;;;;;;;;;;;;;;;;;;5090738;28;20324;-72
2022/05/27 18:12:35;;;;;;;;;;;;;;;;;;5091102;28;19994;-72
2022/05/27 18:15:02;;;;;;;;;;;;;;;;;;5091053;28;19908;-72
2022/05/27 18:17:28;;;;;;;;;;;;;;;;;;5089245;28;19916;-73
2022/05/27 18:19:54;;;;;;;;;;;;;;;;;;5090833;28;20014;-72
2022/05/27 18:22:19;;;;;;;;;;;;;;;;;;5091246;28;19999;-72
2022/05/27 18:24:46;;;;;;;;;;;;;;;;;;5090430;28;20368;-72
2022/05/27 18:27:13;;;;;;;;;;;;;;;;;;5090737;28;19918;-73
2022/05/27 18:29:39;;;;;;;;;;;;;;;;;;5090682;28;20329;-71
2022/05/27 18:32:05;;;;;;;;;;;;;;;;;;5090244;28;19923;-72
2022/05/27 18:34:31;;;;;;;;;;;;;;;;;;5090838;28;20401;-71
2022/05/27 18:36:57;;;;;;;;;;;;;;;;;;5090727;28;19909;-71
2022/05/27 18:39:23;;;;;;;;;;;;;;;;;;5089666;28;19916;-72
2022/05/27 18:41:51;;;;;;;;;;;;;;;;;;5090461;28;19915;-72
2022/05/27 18:44:55;;;;;;;;;;;;;;;;;;5090996;27;19924;-70
2022/05/27 18:47:21;;;;;;;;;;;;;;;;;;5091504;28;20458;-71
2022/05/27 18:50:07;;;;;;;;;;;;;;;;;;5091398;27;19916;-70
2022/05/27 18:52:33;;;;;;;;;;;;;;;;;;5089524;28;19919;-70
2022/05/27 18:55:19;;;;;;;;;;;;;;;;;;5091380;27;19912;-70
2022/05/27 18:57:45;;;;;;;;;;;;;;;;;;5091229;28;20269;-71
2022/05/27 19:00:11;;;;;;;;;;;;;;;;;;5090567;28;20003;-70
2022/05/27 19:02:37;;;;;;;;;;;;;;;;;;5090871;28;19910;-71
2022/05/27 19:05:03;;;;;;;;;;;;;;;;;;5090911;28;19934;-71
2022/05/27 19:07:29;;;;;;;;;;;;;;;;;;5090622;28;19908;-71
2022/05/27 19:09:55;;;;;;;;;;;;;;;;;;5090515;28;19908;-71
2022/05/27 19:12:21;;;;;;;;;;;;;;;;;;5090340;28;20025;-71
2022/05/27 19:14:47;;;;;;;;;;;;;;;;;;5089011;28;19916;-71
2022/05/27 19:17:13;;;;;;;;;;;;;;;;;;5090934;28;19909;-71
2022/05/27 19:22:24;;;;;;;;;;;;;;;;;;5090933;28;19916;-72